Аэропорт: Бегишево. Набережные Челны, Нижнекамск

ICAO: UWKE

METAR:
2020-10-19 15:30:00
UWKE 191530Z 27004MPS 9999 BKN039 06/03 Q1012 R21/090070 NOSIG RMK QFE743/0990
METAR:
2020-10-19 13:45:00
TAF UWKE 191345Z 1915/2015 22003G09MPS 9999 BKN020 TEMPO 1915/1918 6000 -SHRA FEW007 SCT016CB TEMPO 1920/2005 6000 FEW005 BKN016 BECMG 2008/2010 25005G12MPS